Time;durP1;ratioP1;P1;durP2;ratioP2;P2;SDS_P1;SDS_P2;PMS_P1;PMS_P2;Temp;Humidity;BMP_temperature;BMP_pressure;BME280_temperature;BME280_humidity;BME280_pressure;Samples;Min_cycle;Max_cycle;Signal;HPM_P1;HPM_P2
2021/01/09 00:00:00;;;;;;;14.13;9.97;;;1.00;85.50;;;;;;5012992;28;20228;-80
2021/01/09 00:02:26;;;;;;;14.13;10.03;;;0.90;85.10;;;;;;5013570;28;20237;-82
2021/01/09 00:04:53;;;;;;;13.57;8.93;;;0.90;86.40;;;;;;5015111;28;20681;-77
2021/01/09 00:07:20;;;;;;;12.37;8.67;;;0.90;86.40;;;;;;5027871;28;20197;-77
2021/01/09 00:09:46;;;;;;;13.60;9.47;;;0.90;86.40;;;;;;5021393;28;20194;-78
2021/01/09 00:12:13;;;;;;;13.77;9.60;;;0.90;86.40;;;;;;5013212;28;20205;-77
2021/01/09 00:14:40;;;;;;;13.47;9.30;;;1.00;86.30;;;;;;5013845;28;20206;-79
2021/01/09 00:17:06;;;;;;;13.87;9.10;;;0.90;85.70;;;;;;5012765;28;20241;-81
2021/01/09 00:19:35;;;;;;;13.73;9.80;;;0.90;86.40;;;;;;5012345;28;20258;-80
2021/01/09 00:22:02;;;;;;;13.53;9.40;;;0.80;86.30;;;;;;5010471;28;20213;-80
2021/01/09 00:24:30;;;;;;;12.47;8.83;;;0.70;86.20;;;;;;5012937;28;20228;-77
2021/01/09 00:26:57;;;;;;;13.77;9.10;;;0.80;86.30;;;;;;5014606;28;20245;-76
2021/01/09 00:29:23;;;;;;;13.43;8.77;;;0.90;86.40;;;;;;5012882;28;20224;-77
2021/01/09 00:31:49;;;;;;;12.70;9.13;;;1.00;86.40;;;;;;5013208;28;20419;-77
2021/01/09 00:34:16;;;;;;;14.17;9.57;;;1.00;85.00;;;;;;5012829;28;20229;-76
2021/01/09 00:36:46;;;;;;;12.90;8.73;;;0.90;85.40;;;;;;5015994;28;20275;-83
2021/01/09 00:39:13;;;;;;;13.10;9.33;;;0.80;85.90;;;;;;5010636;28;20399;-78
2021/01/09 00:41:40;;;;;;;15.07;9.00;;;0.70;86.20;;;;;;5013932;28;20208;-79
2021/01/09 00:44:07;;;;;;;13.70;9.00;;;0.60;86.20;;;;;;5023961;28;20227;-80
2021/01/09 00:46:34;;;;;;;13.40;9.27;;;0.50;86.10;;;;;;5012104;28;20209;-78
2021/01/09 00:49:00;;;;;;;14.13;8.93;;;0.60;86.20;;;;;;5012836;28;21903;-77
2021/01/09 00:51:26;;;;;;;12.07;9.20;;;0.70;86.20;;;;;;5016965;28;20201;-78
2021/01/09 00:53:53;;;;;;;12.87;9.30;;;0.60;86.20;;;;;;5013463;28;20963;-77
2021/01/09 00:56:19;;;;;;;11.73;7.90;;;0.70;86.20;;;;;;5015522;28;20204;-82
2021/01/09 00:58:47;;;;;;;13.30;9.23;;;0.70;86.20;;;;;;5024427;28;20716;-79
2021/01/09 01:01:14;;;;;;;12.40;9.17;;;0.80;85.60;;;;;;5017807;28;20236;-78
2021/01/09 01:03:42;;;;;;;12.47;9.00;;;0.70;86.20;;;;;;5025855;28;20257;-76
2021/01/09 01:06:09;;;;;;;11.63;8.37;;;0.70;86.20;;;;;;5024723;28;20209;-77
2021/01/09 01:08:35;;;;;;;12.67;8.67;;;0.80;86.30;;;;;;5024769;28;20232;-76
2021/01/09 01:11:01;;;;;;;12.37;8.40;;;0.90;85.60;;;;;;5031692;28;20205;-76
2021/01/09 01:13:28;;;;;;;13.97;8.80;;;1.00;85.00;;;;;;5028424;28;20336;-79
2021/01/09 01:15:55;;;;;;;15.47;9.60;;;0.80;85.60;;;;;;5024619;28;20200;-79
2021/01/09 01:18:21;;;;;;;14.10;9.00;;;0.70;86.20;;;;;;5026607;28;20226;-76
2021/01/09 01:20:48;;;;;;;13.73;8.93;;;0.60;86.20;;;;;;5030899;28;20209;-77
2021/01/09 01:23:14;;;;;;;12.90;8.23;;;0.70;86.20;;;;;;5032112;28;20783;-77
2021/01/09 01:25:41;;;;;;;13.10;8.77;;;0.70;86.20;;;;;;5027097;28;20268;-79
2021/01/09 01:28:07;;;;;;;12.60;8.43;;;0.80;86.30;;;;;;5033669;28;20232;-78
2021/01/09 01:30:33;;;;;;;12.07;8.20;;;0.80;86.30;;;;;;5031002;28;20664;-77
2021/01/09 01:33:00;;;;;;;14.13;8.90;;;0.90;85.10;;;;;;5029244;28;20333;-77
2021/01/09 01:35:27;;;;;;;12.67;9.13;;;0.80;86.30;;;;;;5026804;28;20205;-78
2021/01/09 01:37:53;;;;;;;15.13;9.90;;;0.90;87.20;;;;;;5017481;28;20240;-79
2021/01/09 01:40:19;;;;;;;13.77;9.20;;;0.80;86.30;;;;;;5028356;28;20263;-80
2021/01/09 01:42:46;;;;;;;13.33;8.90;;;0.70;86.20;;;;;;5029285;28;20697;-77
2021/01/09 01:45:12;;;;;;;11.60;8.53;;;0.80;86.30;;;;;;5032486;28;20649;-76
2021/01/09 01:47:39;;;;;;;12.80;8.97;;;0.70;86.30;;;;;;5031827;28;20252;-77
2021/01/09 01:50:08;;;;;;;13.83;9.70;;;0.70;86.30;;;;;;5027259;28;20551;-79
2021/01/09 01:52:34;;;;;;;12.23;8.80;;;0.80;86.30;;;;;;5026893;28;20241;-78
2021/01/09 01:55:01;;;;;;;14.00;9.43;;;0.70;86.20;;;;;;5027353;28;20210;-78
2021/01/09 01:57:28;;;;;;;12.23;8.97;;;0.70;86.30;;;;;;5026128;28;20196;-80
2021/01/09 01:59:54;;;;;;;11.77;8.57;;;0.70;86.20;;;;;;5028604;28;20237;-77
2021/01/09 02:02:21;;;;;;;12.47;8.87;;;0.80;86.30;;;;;;5029734;28;20715;-76
2021/01/09 02:04:50;;;;;;;12.93;8.83;;;0.80;86.30;;;;;;5024655;28;20200;-76
2021/01/09 02:07:21;;;;;;;14.73;9.40;;;0.70;86.20;;;;;;5031362;28;20233;-78
2021/01/09 02:09:51;;;;;;;11.70;8.73;;;0.60;86.20;;;;;;5029558;28;20224;-76
2021/01/09 02:12:20;;;;;;;14.30;9.30;;;0.60;87.40;;;;;;5025516;28;20577;-76
2021/01/09 02:14:50;;;;;;;13.00;8.93;;;0.70;86.20;;;;;;5027416;28;20220;-77
2021/01/09 02:17:19;;;;;;;12.93;9.10;;;0.80;87.10;;;;;;5028558;28;20201;-78
2021/01/09 02:19:46;;;;;;;13.53;9.53;;;0.80;86.30;;;;;;5026047;28;20206;-76
2021/01/09 02:22:14;;;;;;;14.00;9.30;;;0.90;86.40;;;;;;5027189;28;20227;-76
2021/01/09 02:24:41;;;;;;;14.43;8.97;;;0.90;86.40;;;;;;5031793;28;20196;-76
2021/01/09 02:27:08;;;;;;;12.53;8.67;;;0.90;86.40;;;;;;5031977;28;20568;-78
2021/01/09 02:29:38;;;;;;;13.50;8.83;;;0.90;86.40;;;;;;5031022;28;20220;-76
2021/01/09 02:32:07;;;;;;;15.57;8.67;;;0.90;86.40;;;;;;5029211;28;20201;-76
2021/01/09 02:34:38;;;;;;;16.70;9.63;;;0.90;85.00;;;;;;5030544;28;20252;-76
2021/01/09 02:37:05;;;;;;;14.90;8.97;;;0.90;86.30;;;;;;5031482;28;20564;-76
2021/01/09 02:39:32;;;;;;;13.67;9.17;;;0.90;86.40;;;;;;5033289;28;20236;-79
2021/01/09 02:42:00;;;;;;;15.13;9.10;;;0.90;86.40;;;;;;5036118;28;20212;-77
2021/01/09 02:44:27;;;;;;;14.37;9.13;;;1.00;85.30;;;;;;5033147;28;20221;-76
2021/01/09 02:46:53;;;;;;;15.17;9.87;;;1.00;85.30;;;;;;5030308;28;20204;-76
2021/01/09 02:49:19;;;;;;;16.20;9.57;;;1.00;85.40;;;;;;5026746;28;20229;-79
2021/01/09 02:51:45;;;;;;;15.57;9.67;;;0.90;86.40;;;;;;5019297;28;20747;-77
2021/01/09 02:54:12;;;;;;;13.13;9.23;;;1.00;86.40;;;;;;5023283;28;20575;-81
2021/01/09 02:56:38;;;;;;;15.13;10.03;;;0.90;86.40;;;;;;5024324;28;20197;-76
2021/01/09 02:59:05;;;;;;;12.80;9.40;;;1.00;86.40;;;;;;5028247;28;20688;-76
2021/01/09 03:01:32;;;;;;;15.93;10.10;;;0.90;86.40;;;;;;5023524;28;20209;-75
2021/01/09 03:03:59;;;;;;;14.23;9.70;;;0.90;86.40;;;;;;5022998;28;20326;-76
2021/01/09 03:06:25;;;;;;;14.67;9.97;;;1.00;86.40;;;;;;5027359;28;20585;-76
2021/01/09 03:08:52;;;;;;;14.47;9.50;;;1.00;86.00;;;;;;5028924;28;20233;-76
2021/01/09 03:11:18;;;;;;;15.43;9.83;;;0.80;86.30;;;;;;5030301;28;20201;-77
2021/01/09 03:13:45;;;;;;;14.70;9.67;;;0.80;86.30;;;;;;5033030;28;20224;-78
2021/01/09 03:16:13;;;;;;;13.80;9.80;;;0.80;86.30;;;;;;5031160;28;20618;-76
2021/01/09 03:18:39;;;;;;;15.37;9.77;;;0.70;86.30;;;;;;5028569;28;20745;-79
2021/01/09 03:21:06;;;;;;;16.23;10.10;;;0.70;86.30;;;;;;5029335;28;20206;-77
2021/01/09 03:23:32;;;;;;;14.83;9.97;;;0.70;87.10;;;;;;5024577;28;20593;-78
2021/01/09 03:25:59;;;;;;;14.23;10.17;;;0.70;86.50;;;;;;5027952;28;20201;-76
2021/01/09 03:28:25;;;;;;;15.40;10.33;;;0.80;87.70;;;;;;5028790;28;20230;-77
2021/01/09 03:30:52;;;;;;;13.07;9.40;;;0.90;86.40;;;;;;5027123;28;20641;-76
2021/01/09 03:33:20;;;;;;;14.43;9.77;;;0.90;86.40;;;;;;5030268;28;20247;-77
2021/01/09 03:35:46;;;;;;;15.13;10.40;;;1.10;86.50;;;;;;5027481;28;20196;-78
2021/01/09 03:38:13;;;;;;;14.40;9.20;;;1.00;85.80;;;;;;5020153;28;20237;-77
2021/01/09 03:40:40;;;;;;;16.60;10.20;;;1.00;86.40;;;;;;5028439;28;20240;-78
2021/01/09 03:43:06;;;;;;;15.67;10.13;;;1.00;86.20;;;;;;5032486;28;20227;-77
2021/01/09 03:45:32;;;;;;;16.77;10.40;;;1.00;86.40;;;;;;5027116;28;20197;-80
2021/01/09 03:47:59;;;;;;;14.70;9.50;;;1.00;86.40;;;;;;5028372;28;20231;-77
2021/01/09 03:50:26;;;;;;;15.03;9.97;;;1.00;86.40;;;;;;5029125;28;20209;-78
2021/01/09 03:52:52;;;;;;;14.97;9.93;;;0.90;86.40;;;;;;5023402;28;20238;-78
2021/01/09 03:55:18;;;;;;;14.70;9.90;;;0.90;86.40;;;;;;5026816;28;20247;-77
2021/01/09 03:57:45;;;;;;;14.77;9.83;;;0.90;86.40;;;;;;5026629;28;20235;-79
2021/01/09 04:00:12;;;;;;;16.00;10.57;;;0.80;86.30;;;;;;5024699;28;20256;-78
2021/01/09 04:02:39;;;;;;;15.30;10.30;;;0.90;86.40;;;;;;5024098;28;20234;-81
2021/01/09 04:05:07;;;;;;;14.67;10.23;;;0.90;87.20;;;;;;5026098;28;20197;-77
2021/01/09 04:07:34;;;;;;;15.77;10.17;;;0.80;86.30;;;;;;5024149;28;20237;-77
2021/01/09 04:10:01;;;;;;;18.53;10.43;;;0.70;86.30;;;;;;5023429;28;20205;-78
2021/01/09 04:12:27;;;;;;;16.57;11.13;;;0.80;86.30;;;;;;5026308;28;20200;-78
2021/01/09 04:14:53;;;;;;;16.73;10.70;;;0.90;86.40;;;;;;5029471;28;20199;-78
2021/01/09 04:17:20;;;;;;;14.23;9.80;;;0.80;86.30;;;;;;5029016;28;20220;-77
2021/01/09 04:19:46;;;;;;;16.47;10.87;;;0.80;86.30;;;;;;5021960;28;20199;-76
2021/01/09 04:22:12;;;;;;;15.17;10.50;;;0.80;86.30;;;;;;5025901;28;20208;-77
2021/01/09 04:24:39;;;;;;;16.73;10.87;;;0.80;86.30;;;;;;5028911;28;20199;-78
2021/01/09 04:27:06;;;;;;;15.53;11.00;;;0.70;86.20;;;;;;5028534;28;20193;-77
2021/01/09 04:29:32;;;;;;;15.80;10.47;;;0.70;88.60;;;;;;5026231;28;20225;-77
2021/01/09 04:31:59;;;;;;;16.53;11.07;;;0.60;88.70;;;;;;5021746;28;20200;-76
2021/01/09 04:34:26;;;;;;;17.20;11.43;;;0.50;88.30;;;;;;5029888;28;20248;-77
2021/01/09 04:36:53;;;;;;;18.00;10.77;;;0.50;88.90;;;;;;5027088;28;20197;-77
2021/01/09 04:39:20;;;;;;;16.27;10.93;;;0.50;88.90;;;;;;5027953;28;20261;-79
2021/01/09 04:41:48;;;;;;;15.37;11.03;;;0.50;89.40;;;;;;5015996;28;20209;-80
2021/01/09 04:44:14;;;;;;;15.13;10.27;;;0.50;89.90;;;;;;5028199;28;20694;-77
2021/01/09 04:46:48;;;;;;;16.30;10.80;;;0.50;89.80;;;;;;5027822;28;20206;-77
2021/01/09 04:49:14;;;;;;;16.67;10.93;;;0.60;89.50;;;;;;5026589;28;20217;-78
2021/01/09 04:51:42;;;;;;;17.80;11.77;;;0.60;90.00;;;;;;5027209;28;20198;-77
2021/01/09 04:54:10;;;;;;;14.37;10.13;;;0.80;88.90;;;;;;5028300;28;20241;-77
2021/01/09 04:56:37;;;;;;;15.50;10.53;;;0.80;87.90;;;;;;5027777;28;20202;-77
2021/01/09 04:59:05;;;;;;;15.40;10.87;;;0.90;88.10;;;;;;5025874;28;21080;-77
2021/01/09 05:01:31;;;;;;;18.20;12.13;;;0.90;87.20;;;;;;5017784;28;20638;-78
2021/01/09 05:03:59;;;;;;;15.23;11.23;;;0.70;87.70;;;;;;5021780;28;20766;-77
2021/01/09 05:06:25;;;;;;;16.03;10.77;;;0.60;89.20;;;;;;5032771;28;20263;-80
2021/01/09 05:08:51;;;;;;;16.63;10.87;;;0.60;90.00;;;;;;5025567;28;20226;-77
2021/01/09 05:11:18;;;;;;;17.37;10.60;;;0.50;89.40;;;;;;5024416;28;20217;-78
2021/01/09 05:13:45;;;;;;;16.13;11.13;;;0.60;90.10;;;;;;5020954;28;20236;-79
2021/01/09 05:16:13;;;;;;;16.30;10.80;;;0.60;89.50;;;;;;5029762;28;20197;-77
2021/01/09 05:18:39;;;;;;;16.50;11.07;;;0.70;89.10;;;;;;5027500;28;20228;-77
2021/01/09 05:21:07;;;;;;;16.73;11.43;;;0.80;88.20;;;;;;5030238;28;20208;-77
2021/01/09 05:23:49;;;;;;;15.63;11.20;;;0.80;88.00;;;;;;5028623;28;20240;-78
2021/01/09 05:26:16;;;;;;;16.37;10.63;;;0.80;87.40;;;;;;5035281;28;20645;-76
2021/01/09 05:28:45;;;;;;;15.33;10.57;;;0.80;87.40;;;;;;5026412;28;20219;-76
2021/01/09 05:31:13;;;;;;;17.87;10.93;;;0.70;88.10;;;;;;5027787;28;20252;-79
2021/01/09 05:33:41;;;;;;;17.40;11.20;;;0.70;87.80;;;;;;5021807;28;20240;-80
2021/01/09 05:36:08;;;;;;;17.80;11.30;;;0.60;88.20;;;;;;5026964;28;20686;-78
2021/01/09 05:38:35;;;;;;;17.00;10.83;;;0.50;88.70;;;;;;5027317;28;20759;-78
2021/01/09 05:41:06;;;;;;;16.53;11.70;;;0.50;89.00;;;;;;5025695;28;20207;-78
2021/01/09 05:43:33;;;;;;;16.20;10.63;;;0.40;89.50;;;;;;5027013;28;20310;-82
2021/01/09 05:46:00;;;;;;;16.83;11.57;;;0.40;90.00;;;;;;5032995;28;20209;-81
2021/01/09 05:48:29;;;;;;;17.20;10.90;;;0.40;90.00;;;;;;5028299;28;20224;-78
2021/01/09 05:50:56;;;;;;;17.23;11.43;;;0.40;90.00;;;;;;5027923;28;20721;-78
2021/01/09 05:53:43;;;;;;;17.20;11.10;;;0.50;89.90;;;;;;5032132;28;20226;-79
2021/01/09 05:56:11;;;;;;;15.60;10.63;;;0.40;90.00;;;;;;5018733;28;20244;-78
2021/01/09 05:58:38;;;;;;;17.90;11.63;;;0.40;89.90;;;;;;5031143;28;20721;-77
2021/01/09 06:01:06;;;;;;;17.50;11.50;;;0.40;90.20;;;;;;5029565;28;20232;-78
2021/01/09 06:03:42;;;;;;;18.43;12.10;;;0.50;90.40;;;;;;5030350;28;20282;-78
2021/01/09 06:06:24;;;;;;;18.03;11.00;;;0.40;90.10;;;;;;5026597;28;20202;-77
2021/01/09 06:08:57;;;;;;;18.37;11.27;;;0.50;89.80;;;;;;5029367;28;20786;-78
2021/01/09 06:11:30;;;;;;;16.53;10.90;;;0.50;90.00;;;;;;5028837;28;20277;-77
2021/01/09 06:14:00;;;;;;;19.40;12.20;;;0.40;89.70;;;;;;5029204;28;20850;-78
2021/01/09 06:16:29;;;;;;;18.43;10.63;;;0.40;90.10;;;;;;5029366;28;20208;-78
2021/01/09 06:18:57;;;;;;;17.47;10.97;;;0.50;90.00;;;;;;5026232;28;20715;-78
2021/01/09 06:21:24;;;;;;;16.17;10.90;;;0.40;89.40;;;;;;5022521;28;20206;-78
2021/01/09 06:23:53;;;;;;;17.83;10.87;;;0.50;90.00;;;;;;5031194;28;20219;-77
2021/01/09 06:26:20;;;;;;;18.30;11.37;;;0.50;89.60;;;;;;5030805;28;20197;-81
2021/01/09 06:28:50;;;;;;;16.37;10.73;;;0.50;89.90;;;;;;5030960;28;20234;-77
2021/01/09 06:31:20;;;;;;;18.83;11.73;;;0.50;89.70;;;;;;5035054;28;20212;-78
2021/01/09 06:33:48;;;;;;;19.03;11.70;;;0.50;89.40;;;;;;5029735;28;20230;-77
2021/01/09 06:36:15;;;;;;;17.70;11.30;;;0.50;88.80;;;;;;5030981;28;20660;-77
2021/01/09 06:38:43;;;;;;;15.87;10.93;;;0.50;89.20;;;;;;5031003;28;20274;-77
2021/01/09 06:41:12;;;;;;;16.87;11.00;;;0.40;89.60;;;;;;5029185;28;20700;-77
2021/01/09 06:43:43;;;;;;;18.57;11.20;;;0.50;90.00;;;;;;5028000;28;20277;-77
2021/01/09 06:46:11;;;;;;;15.43;10.47;;;0.50;89.80;;;;;;5027704;28;20207;-77
2021/01/09 06:48:37;;;;;;;17.37;11.20;;;0.60;89.50;;;;;;5028993;28;20228;-76
2021/01/09 06:51:43;;;;;;;19.80;11.10;;;0.70;88.60;;;;;;5025599;28;20210;-78
2021/01/09 06:54:23;;;;;;;16.03;10.70;;;0.70;88.70;;;;;;5027768;28;20269;-76
2021/01/09 06:56:50;;;;;;;17.40;11.47;;;0.70;88.70;;;;;;5030009;28;20260;-77
2021/01/09 06:59:30;;;;;;;16.77;11.10;;;0.80;88.40;;;;;;5025871;28;20230;-80
2021/01/09 07:02:17;;;;;;;16.50;10.70;;;0.80;87.40;;;;;;5024538;28;20669;-77
2021/01/09 07:04:59;;;;;;;15.83;10.20;;;0.80;87.70;;;;;;5020142;28;20219;-82
2021/01/09 07:07:34;;;;;;;15.10;10.30;;;0.80;87.60;;;;;;5018612;28;20194;-77
2021/01/09 07:10:08;;;;;;;13.90;9.23;;;0.80;87.00;;;;;;5031376;28;20194;-78
2021/01/09 07:12:34;;;;;;;18.07;11.00;;;0.80;87.70;;;;;;5028678;28;20701;-76
2021/01/09 07:15:06;;;;;;;15.73;9.97;;;0.80;87.10;;;;;;5031590;28;20641;-78
2021/01/09 07:17:36;;;;;;;14.07;9.70;;;0.90;86.70;;;;;;5027611;28;20301;-77
2021/01/09 07:20:05;;;;;;;16.13;9.73;;;0.90;86.40;;;;;;5023792;28;20199;-79
2021/01/09 07:22:34;;;;;;;15.97;10.70;;;0.90;86.40;;;;;;5029504;28;20595;-78
2021/01/09 07:25:05;;;;;;;15.83;9.93;;;0.90;86.40;;;;;;5025908;28;20202;-76
2021/01/09 07:27:35;;;;;;;15.33;10.00;;;0.90;86.70;;;;;;5029335;28;20227;-78
2021/01/09 07:30:11;;;;;;;15.47;10.50;;;0.80;87.60;;;;;;5028737;28;20301;-79
2021/01/09 07:32:42;;;;;;;14.60;9.80;;;0.80;87.80;;;;;;5029486;28;20562;-76
2021/01/09 07:35:09;;;;;;;14.07;9.83;;;0.80;86.30;;;;;;5029038;28;20227;-77
2021/01/09 07:37:39;;;;;;;16.77;10.23;;;0.80;86.60;;;;;;5028457;28;20231;-78
2021/01/09 07:40:13;;;;;;;13.97;9.30;;;0.90;86.40;;;;;;5027233;28;20207;-78
2021/01/09 07:42:40;;;;;;;13.37;9.27;;;1.00;86.40;;;;;;5026080;28;20234;-77
2021/01/09 07:45:09;;;;;;;14.07;9.43;;;1.00;86.40;;;;;;5028143;28;20207;-77
2021/01/09 07:47:47;;;;;;;14.70;9.07;;;1.00;86.40;;;;;;5024928;28;20221;-76
2021/01/09 07:50:15;;;;;;;14.80;9.87;;;1.10;86.50;;;;;;5027032;28;20265;-77
2021/01/09 07:52:43;;;;;;;13.60;8.93;;;1.10;85.50;;;;;;5024622;28;20570;-77
2021/01/09 07:55:14;;;;;;;12.97;8.73;;;1.00;84.50;;;;;;5028194;28;20225;-77
2021/01/09 07:57:41;;;;;;;14.97;9.70;;;1.00;85.10;;;;;;5028089;28;20694;-78
2021/01/09 08:00:10;;;;;;;12.30;9.20;;;0.90;85.20;;;;;;5026372;28;20719;-77
2021/01/09 08:02:38;;;;;;;14.17;9.27;;;0.90;86.40;;;;;;5028258;28;20220;-77
2021/01/09 08:05:07;;;;;;;12.57;8.90;;;0.90;84.60;;;;;;5023009;28;20286;-77
2021/01/09 08:07:35;;;;;;;14.13;9.53;;;0.90;84.40;;;;;;5028948;28;20842;-77
2021/01/09 08:10:18;;;;;;;14.37;9.37;;;0.90;84.50;;;;;;5031636;28;20194;-77
2021/01/09 08:12:44;;;;;;;15.40;8.83;;;0.80;85.20;;;;;;5028446;28;21069;-77
2021/01/09 08:15:11;;;;;;;13.70;8.67;;;0.80;84.90;;;;;;5023064;28;20357;-76
2021/01/09 08:17:37;;;;;;;12.17;8.43;;;0.80;84.00;;;;;;5027970;28;20255;-79
2021/01/09 08:20:11;;;;;;;12.37;8.13;;;0.80;82.10;;;;;;5025354;28;20297;-78
2021/01/09 08:22:39;;;;;;;10.97;7.27;;;0.70;81.50;;;;;;5027195;28;20232;-76
2021/01/09 08:25:10;;;;;;;12.53;7.83;;;0.80;81.80;;;;;;5025082;28;20216;-79
2021/01/09 08:27:43;;;;;;;11.23;7.43;;;0.90;81.70;;;;;;5026414;28;20223;-77
2021/01/09 08:30:12;;;;;;;13.47;8.40;;;0.90;81.70;;;;;;5026796;28;20201;-79
2021/01/09 08:32:38;;;;;;;10.80;7.63;;;1.00;80.30;;;;;;5020010;28;20226;-76
2021/01/09 08:35:06;;;;;;;12.57;8.03;;;1.00;80.00;;;;;;5020733;28;20270;-77
2021/01/09 08:37:32;;;;;;;12.03;7.77;;;1.10;79.80;;;;;;5024429;28;20269;-76
2021/01/09 08:40:08;;;;;;;10.77;7.47;;;1.20;79.30;;;;;;5025552;28;20675;-77
2021/01/09 08:42:34;;;;;;;12.83;7.60;;;1.50;78.70;;;;;;5024105;28;20235;-79
2021/01/09 08:45:01;;;;;;;13.37;7.73;;;1.70;77.10;;;;;;5027646;28;20208;-77
2021/01/09 08:47:28;;;;;;;11.80;7.47;;;1.80;76.20;;;;;;5026393;28;20206;-77
2021/01/09 08:49:58;;;;;;;10.50;7.33;;;2.00;74.90;;;;;;5025712;28;20198;-77
2021/01/09 08:52:27;;;;;;;10.90;7.50;;;2.20;72.20;;;;;;5022348;28;20596;-77
2021/01/09 08:54:54;;;;;;;10.47;7.27;;;2.30;72.60;;;;;;5026423;28;20706;-78
2021/01/09 08:57:21;;;;;;;10.40;7.73;;;2.60;70.30;;;;;;5026607;28;20673;-82
2021/01/09 08:59:48;;;;;;;11.10;8.20;;;2.70;68.90;;;;;;5019369;28;20226;-82
2021/01/09 09:02:20;;;;;;;9.67;7.60;;;2.60;67.20;;;;;;5028631;28;20191;-80
2021/01/09 09:04:50;;;;;;;11.37;8.17;;;2.50;70.40;;;;;;5021252;28;20213;-81
2021/01/09 09:07:21;;;;;;;10.83;7.30;;;2.50;69.60;;;;;;5031183;28;20190;-81
2021/01/09 09:09:52;;;;;;;10.50;6.93;;;2.90;67.50;;;;;;5026861;28;20248;-79
2021/01/09 09:12:30;;;;;;;11.10;6.83;;;3.10;67.80;;;;;;5029166;28;20203;-79
2021/01/09 09:14:59;;;;;;;9.90;7.13;;;3.20;67.90;;;;;;5028114;28;20214;-85
2021/01/09 09:17:29;;;;;;;10.17;7.30;;;3.40;65.20;;;;;;5017769;28;20235;-82
2021/01/09 09:19:55;;;;;;;9.90;7.57;;;3.70;62.30;;;;;;5024661;28;20191;-81
2021/01/09 09:22:30;;;;;;;8.50;6.43;;;3.80;62.30;;;;;;5033625;28;20280;-83
2021/01/09 09:24:57;;;;;;;11.80;7.37;;;4.20;59.20;;;;;;5034395;28;20204;-82
2021/01/09 09:27:27;;;;;;;11.97;7.20;;;4.70;57.60;;;;;;5034554;28;20240;-84
2021/01/09 09:30:15;;;;;;;10.00;7.17;;;4.80;57.30;;;;;;5039845;28;20526;-80
2021/01/09 09:32:43;;;;;;;11.23;7.73;;;4.40;56.90;;;;;;5039208;28;20228;-81
2021/01/09 09:35:21;;;;;;;9.93;7.67;;;4.20;59.00;;;;;;5036932;28;20222;-83
2021/01/09 09:37:47;;;;;;;10.13;7.40;;;4.10;60.00;;;;;;5026018;28;20237;-79
2021/01/09 09:40:24;;;;;;;9.80;7.73;;;4.10;59.90;;;;;;5029428;28;20225;-82
2021/01/09 09:42:50;;;;;;;10.57;7.80;;;4.40;57.60;;;;;;5028772;28;20701;-83
2021/01/09 09:45:17;;;;;;;10.17;7.73;;;4.60;56.90;;;;;;5032558;28;20668;-84
2021/01/09 09:47:47;;;;;;;11.70;8.90;;;4.40;57.90;;;;;;5034365;28;20230;-83
2021/01/09 09:50:18;;;;;;;11.43;8.87;;;4.40;58.90;;;;;;5035756;28;20690;-85
2021/01/09 09:52:45;;;;;;;10.50;8.33;;;4.90;58.10;;;;;;5032019;28;20615;-87
2021/01/09 09:55:11;;;;;;;11.47;8.50;;;5.00;54.80;;;;;;5032957;28;20218;-85
2021/01/09 09:57:38;;;;;;;13.30;10.97;;;5.30;54.00;;;;;;5032569;28;20236;-86
2021/01/09 10:00:08;;;;;;;10.60;8.80;;;4.80;55.30;;;;;;5033206;28;20299;-84
2021/01/09 10:02:35;;;;;;;11.90;9.13;;;4.10;57.30;;;;;;5031868;28;20233;-83
2021/01/09 10:05:12;;;;;;;10.90;8.43;;;3.90;59.90;;;;;;5034187;28;20555;-86
2021/01/09 10:07:38;;;;;;;12.47;8.97;;;4.10;60.30;;;;;;5037224;28;20577;-85
2021/01/09 10:10:14;;;;;;;11.33;8.77;;;4.60;59.10;;;;;;5040476;28;20208;-86
2021/01/09 10:12:40;;;;;;;12.40;9.40;;;5.10;55.90;;;;;;5024895;28;20218;-87
2021/01/09 10:15:08;;;;;;;11.30;9.30;;;5.30;54.30;;;;;;5030390;28;20686;-90
2021/01/09 10:17:34;;;;;;;11.90;9.37;;;5.40;53.90;;;;;;5026312;28;20245;-85
2021/01/09 10:20:00;;;;;;;12.27;9.13;;;5.40;54.00;;;;;;5029821;28;20228;-87
2021/01/09 10:22:28;;;;;;;12.37;9.57;;;5.30;54.30;;;;;;5033596;28;20186;-86
2021/01/09 10:24:54;;;;;;;11.27;9.03;;;5.30;55.00;;;;;;5032699;28;20213;-87
2021/01/09 10:27:20;;;;;;;12.70;9.32;;;5.60;54.60;;;;;;5030638;28;20186;-90
2021/01/09 10:29:47;;;;;;;11.45;8.90;;;5.70;53.40;;;;;;5030445;28;20199;-89
2021/01/09 10:32:13;;;;;;;12.35;9.63;;;5.90;51.70;;;;;;5037180;28;20722;-86
2021/01/09 10:34:40;;;;;;;11.65;9.52;;;5.60;51.50;;;;;;5034801;28;20221;-86
2021/01/09 10:37:06;;;;;;;11.82;9.50;;;5.10;53.20;;;;;;5034756;28;20194;-86
2021/01/09 10:39:34;;;;;;;10.85;9.50;;;4.90;55.30;;;;;;5026687;28;20249;-90
2021/01/09 10:42:00;;;;;;;12.10;10.10;;;4.90;54.80;;;;;;5031096;28;20228;-87
2021/01/09 10:44:26;;;;;;;11.43;9.50;;;4.80;55.90;;;;;;5029618;28;20231;-88
2021/01/09 10:46:53;;;;;;;10.90;8.93;;;4.70;55.90;;;;;;5035643;28;20467;-85
2021/01/09 10:49:19;;;;;;;10.70;8.88;;;5.10;54.90;;;;;;5038751;28;20230;-90
2021/01/09 10:51:46;;;;;;;11.27;9.45;;;5.70;53.10;;;;;;5037475;28;20195;-86
2021/01/09 10:54:16;;;;;;;10.45;8.75;;;7.00;49.70;;;;;;5040944;28;20248;-86
2021/01/09 10:56:47;;;;;;;8.63;6.85;;;8.00;46.70;;;;;;5034992;28;20190;-87
2021/01/09 10:59:14;;;;;;;8.90;7.63;;;8.40;44.20;;;;;;5038890;28;20715;-85
2021/01/09 11:01:40;;;;;;;8.75;7.75;;;8.50;42.00;;;;;;5025351;28;20195;-89
2021/01/09 11:04:07;;;;;;;9.45;8.55;;;8.20;40.90;;;;;;5034120;28;20234;-87
2021/01/09 11:06:34;;;;;;;9.23;8.23;;;8.00;42.90;;;;;;5030351;28;20195;-86
2021/01/09 11:09:00;;;;;;;11.52;8.23;;;7.80;42.30;;;;;;5036563;28;20306;-87
2021/01/09 11:11:27;;;;;;;8.60;7.70;;;7.70;43.90;;;;;;5028606;28;20221;-88
2021/01/09 11:13:54;;;;;;;7.95;7.15;;;8.00;42.40;;;;;;5026288;28;20246;-90
2021/01/09 11:16:22;;;;;;;10.60;9.25;;;8.40;41.50;;;;;;5037761;28;20279;-87
2021/01/09 11:18:51;;;;;;;9.43;8.43;;;7.70;42.50;;;;;;5047713;28;20285;-86
2021/01/09 11:21:20;;;;;;;11.20;9.40;;;7.00;44.50;;;;;;5044612;28;20210;-90
2021/01/09 11:23:47;;;;;;;9.50;8.35;;;6.30;45.30;;;;;;5043840;28;20713;-88
2021/01/09 11:26:23;;;;;;;9.82;8.25;;;5.90;46.90;;;;;;5036328;28;20743;-89
2021/01/09 11:28:49;;;;;;;10.18;8.93;;;6.40;45.90;;;;;;5034517;28;20225;-87
2021/01/09 11:31:21;;;;;;;9.30;7.75;;;6.80;45.80;;;;;;5036298;28;20262;-88
2021/01/09 11:33:49;;;;;;;11.20;8.05;;;6.40;45.40;;;;;;5038454;28;20226;-88
2021/01/09 11:36:16;;;;;;;8.90;7.82;;;6.40;45.40;;;;;;5038092;28;20198;-87
2021/01/09 11:38:42;;;;;;;9.48;8.18;;;6.40;45.40;;;;;;5021364;28;20604;-88
2021/01/09 11:41:09;;;;;;;10.82;8.75;;;6.60;45.60;;;;;;5024785;28;20205;-86
2021/01/09 11:43:36;;;;;;;9.75;7.57;;;6.20;47.10;;;;;;5019423;28;21091;-85
2021/01/09 11:46:05;;;;;;;9.02;7.97;;;6.40;45.40;;;;;;5020624;28;20198;-85
2021/01/09 11:48:32;;;;;;;12.10;8.30;;;6.30;47.50;;;;;;5020032;28;20684;-83
2021/01/09 11:50:58;;;;;;;9.70;7.87;;;6.10;45.20;;;;;;5019127;28;20526;-85
2021/01/09 11:53:25;;;;;;;11.60;8.77;;;5.90;46.50;;;;;;5019046;28;20230;-83
2021/01/09 11:55:51;;;;;;;11.67;8.93;;;5.50;48.00;;;;;;5018484;28;20703;-82
2021/01/09 11:58:18;;;;;;;9.90;8.30;;;4.90;50.20;;;;;;5018419;28;20692;-81
2021/01/09 12:00:44;;;;;;;10.73;8.43;;;4.50;52.20;;;;;;5016688;28;20231;-81
2021/01/09 12:03:11;;;;;;;11.37;9.00;;;4.10;54.60;;;;;;5017907;28;20238;-81
2021/01/09 12:05:38;;;;;;;12.20;8.43;;;3.80;56.10;;;;;;5018989;28;20215;-82
2021/01/09 12:08:05;;;;;;;11.97;8.97;;;3.50;57.70;;;;;;5016715;28;20709;-81
2021/01/09 12:10:32;;;;;;;11.30;8.87;;;3.30;60.50;;;;;;5023950;28;20198;-82
2021/01/09 12:12:59;;;;;;;15.63;9.80;;;3.40;60.00;;;;;;5025405;28;20237;-83
2021/01/09 12:15:25;;;;;;;11.80;9.17;;;3.60;59.40;;;;;;5028609;28;20701;-79
2021/01/09 12:17:51;;;;;;;10.60;8.27;;;3.70;58.10;;;;;;5028607;28;20690;-80
2021/01/09 12:20:17;;;;;;;12.93;8.90;;;3.60;58.50;;;;;;5024154;28;20562;-82
2021/01/09 12:22:45;;;;;;;12.53;8.83;;;3.60;58.20;;;;;;5027200;28;20232;-81
2021/01/09 12:25:12;;;;;;;13.47;8.93;;;3.40;58.40;;;;;;5029293;28;20953;-82
2021/01/09 12:27:39;;;;;;;12.57;9.10;;;3.30;58.90;;;;;;5030988;28;20237;-81
2021/01/09 12:30:06;;;;;;;13.60;10.23;;;3.30;59.80;;;;;;5030583;28;20195;-86
2021/01/09 12:32:33;;;;;;;15.03;10.80;;;3.60;59.70;;;;;;5020211;28;20213;-87
2021/01/09 12:35:00;;;;;;;13.73;9.57;;;3.70;59.90;;;;;;5024554;28;20237;-85
2021/01/09 12:37:26;;;;;;;14.83;9.50;;;3.50;59.80;;;;;;5026819;28;20202;-83
2021/01/09 12:39:53;;;;;;;11.50;9.03;;;3.60;59.20;;;;;;5024242;28;20202;-82
2021/01/09 12:42:19;;;;;;;14.43;8.97;;;3.70;58.50;;;;;;5023285;28;20418;-84
2021/01/09 12:44:45;;;;;;;12.20;8.83;;;3.80;58.70;;;;;;5019243;28;20203;-84
2021/01/09 12:47:12;;;;;;;11.97;9.40;;;3.80;56.80;;;;;;5024328;28;20203;-83
2021/01/09 12:49:38;;;;;;;10.90;9.00;;;3.70;57.90;;;;;;5014295;28;20316;-83